首页
METAR-TAF:

METAR-TAF

机场 :

聖何塞港, 危地马拉

纬度: 13-55N, 经度: 090-49W, 海拔: 2米

当前天气观测

该预报发布于13小时和40分钟前的21:00 UTC
风速10节,风向南转西南
温度 32°C
湿度 63%
气压 1007 hPa
能見度: 8000
天空无云

METAR: MGSJ 012100Z 20010KT 8000 SKC 32/24 Q1007 A2974 FU

时间: 04:40 (10:40 UTC)

预报

预报有效从02日的 06点(UTC)到 03日的 06点(UTC)
风速节,风向
能見度: 7000
成为
从 02日的 16点(UTC)到 02日的 18点(UTC)
风速8节,风向
少量云层高于2000英尺
几率 40% :
短暂存在
从 02日的 18点(UTC)到 03日的 04点(UTC)
能見度: 6000
散云层高于2000英尺, 塔状积云.
少量云层高于2500英尺, 积雨云.
雷暴, 雨
成为
从 03日的 00点(UTC)到 03日的 02点(UTC)
风速节,风向
散云层高于1600英尺

TAF: MGSJ 0206/0306 00000KT 7000 NSC TX34/0220Z TN22/0212Z BECMG 0216/0218 18008KT FEW020 PROB40 TEMPO 0218/0304 6000 TSRA SCT020TCU FEW025CB BECMG 0300/0302 00000KT SCT016

超过4000个机场的气象观测和天气预报(METAR&TAF报告)。

可查询的气象台以黄色和红色小点在地图上表示。

将鼠标移到小点上方,可查看气象台名称。

然后点击查看天气观测和预报。

如需切换地图:点击带黑十字的绿色按钮放大地图;点击带横线的绿色按钮缩小地图;或者点击绿色箭头查看邻近地区的地图。


METAR-TAF: